sensor_id;sensor_type;location;lat;lon;timestamp;temperature;humidity
8424;DHT22;4249;49.072;9.770;2022-12-24T00:02:21;9.60;1.00
8424;DHT22;4249;49.072;9.770;2022-12-24T00:05:08;9.60;1.00
8424;DHT22;4249;49.072;9.770;2022-12-24T00:07:56;9.70;1.00
8424;DHT22;4249;49.072;9.770;2022-12-24T00:10:43;9.60;1.00
8424;DHT22;4249;49.072;9.770;2022-12-24T00:13:30;9.70;1.00
8424;DHT22;4249;49.072;9.770;2022-12-24T00:16:19;9.60;1.00
8424;DHT22;4249;49.072;9.770;2022-12-24T00:19:06;9.70;1.00
8424;DHT22;4249;49.072;9.770;2022-12-24T00:21:53;9.70;1.00
8424;DHT22;4249;49.072;9.770;2022-12-24T00:24:41;9.70;1.00
8424;DHT22;4249;49.072;9.770;2022-12-24T00:27:28;9.80;1.00
8424;DHT22;4249;49.072;9.770;2022-12-24T00:30:15;9.90;1.00
8424;DHT22;4249;49.072;9.770;2022-12-24T00:33:04;9.90;1.00
8424;DHT22;4249;49.072;9.770;2022-12-24T00:35:52;9.90;1.00
8424;DHT22;4249;49.072;9.770;2022-12-24T00:38:39;9.90;1.00
8424;DHT22;4249;49.072;9.770;2022-12-24T00:41:26;9.90;1.00
8424;DHT22;4249;49.072;9.770;2022-12-24T00:44:14;10.00;1.00
8424;DHT22;4249;49.072;9.770;2022-12-24T00:47:01;9.90;1.00
8424;DHT22;4249;49.072;9.770;2022-12-24T00:49:49;9.90;1.00
8424;DHT22;4249;49.072;9.770;2022-12-24T00:52:37;9.80;1.00
8424;DHT22;4249;49.072;9.770;2022-12-24T00:55:24;9.80;1.00
8424;DHT22;4249;49.072;9.770;2022-12-24T00:58:11;9.80;1.00
8424;DHT22;4249;49.072;9.770;2022-12-24T01:01:01;9.80;1.00
8424;DHT22;4249;49.072;9.770;2022-12-24T01:03:49;9.70;1.00
8424;DHT22;4249;49.072;9.770;2022-12-24T01:06:38;9.70;1.00
8424;DHT22;4249;49.072;9.770;2022-12-24T01:09:24;9.70;1.00
8424;DHT22;4249;49.072;9.770;2022-12-24T01:12:13;9.70;1.00
8424;DHT22;4249;49.072;9.770;2022-12-24T01:15:01;9.70;1.00
8424;DHT22;4249;49.072;9.770;2022-12-24T01:17:48;9.80;1.00
8424;DHT22;4249;49.072;9.770;2022-12-24T01:20:36;9.80;1.00
8424;DHT22;4249;49.072;9.770;2022-12-24T01:23:26;9.80;1.00
8424;DHT22;4249;49.072;9.770;2022-12-24T01:26:13;9.80;1.00
8424;DHT22;4249;49.072;9.770;2022-12-24T01:29:00;9.80;1.00
8424;DHT22;4249;49.072;9.770;2022-12-24T01:31:47;9.70;1.00
8424;DHT22;4249;49.072;9.770;2022-12-24T01:34:35;9.70;1.00
8424;DHT22;4249;49.072;9.770;2022-12-24T01:37:22;9.70;1.00
8424;DHT22;4249;49.072;9.770;2022-12-24T01:40:14;9.70;1.00
8424;DHT22;4249;49.072;9.770;2022-12-24T01:43:20;9.70;1.00
8424;DHT22;4249;49.072;9.770;2022-12-24T01:46:16;9.70;1.00
8424;DHT22;4249;49.072;9.770;2022-12-24T01:49:04;9.60;1.00
8424;DHT22;4249;49.072;9.770;2022-12-24T01:51:55;9.70;1.00
8424;DHT22;4249;49.072;9.770;2022-12-24T01:54:46;9.70;1.00
8424;DHT22;4249;49.072;9.770;2022-12-24T01:57:38;9.60;1.00
8424;DHT22;4249;49.072;9.770;2022-12-24T02:00:27;9.60;1.00
8424;DHT22;4249;49.072;9.770;2022-12-24T02:03:15;9.60;1.00
8424;DHT22;4249;49.072;9.770;2022-12-24T02:06:03;9.60;1.00
8424;DHT22;4249;49.072;9.770;2022-12-24T02:08:51;9.60;1.00
8424;DHT22;4249;49.072;9.770;2022-12-24T02:11:40;9.60;1.00
8424;DHT22;4249;49.072;9.770;2022-12-24T02:14:31;9.50;1.00
8424;DHT22;4249;49.072;9.770;2022-12-24T02:17:25;9.40;1.00
8424;DHT22;4249;49.072;9.770;2022-12-24T02:20:57;9.40;1.00
8424;DHT22;4249;49.072;9.770;2022-12-24T02:24:07;9.40;1.00
8424;DHT22;4249;49.072;9.770;2022-12-24T02:27:25;9.30;1.00
8424;DHT22;4249;49.072;9.770;2022-12-24T02:30:17;9.10;1.00
8424;DHT22;4249;49.072;9.770;2022-12-24T02:33:25;9.10;1.00
8424;DHT22;4249;49.072;9.770;2022-12-24T02:36:19;9.10;1.00
8424;DHT22;4249;49.072;9.770;2022-12-24T02:39:12;9.00;1.00
8424;DHT22;4249;49.072;9.770;2022-12-24T02:42:02;9.00;1.00
8424;DHT22;4249;49.072;9.770;2022-12-24T02:44:56;9.00;1.00
8424;DHT22;4249;49.072;9.770;2022-12-24T02:47:47;9.00;1.00
8424;DHT22;4249;49.072;9.770;2022-12-24T02:50:35;9.00;1.00
8424;DHT22;4249;49.072;9.770;2022-12-24T02:53:24;9.00;1.00
8424;DHT22;4249;49.072;9.770;2022-12-24T02:56:22;9.00;1.00
8424;DHT22;4249;49.072;9.770;2022-12-24T02:59:24;9.00;1.00
8424;DHT22;4249;49.072;9.770;2022-12-24T03:02:25;9.00;1.00
8424;DHT22;4249;49.072;9.770;2022-12-24T03:05:24;9.00;1.00
8424;DHT22;4249;49.072;9.770;2022-12-24T03:08:18;8.90;1.00
8424;DHT22;4249;49.072;9.770;2022-12-24T03:11:09;8.90;1.00
8424;DHT22;4249;49.072;9.770;2022-12-24T03:13:57;8.90;1.00
8424;DHT22;4249;49.072;9.770;2022-12-24T03:16:46;8.80;1.00
8424;DHT22;4249;49.072;9.770;2022-12-24T03:19:33;8.80;1.00
8424;DHT22;4249;49.072;9.770;2022-12-24T03:22:24;8.70;1.00
8424;DHT22;4249;49.072;9.770;2022-12-24T03:25:12;8.70;1.00
8424;DHT22;4249;49.072;9.770;2022-12-24T03:28:02;8.70;1.00
8424;DHT22;4249;49.072;9.770;2022-12-24T03:30:50;8.70;1.00
8424;DHT22;4249;49.072;9.770;2022-12-24T03:33:38;8.70;1.00
8424;DHT22;4249;49.072;9.770;2022-12-24T03:36:25;8.70;1.00
8424;DHT22;4249;49.072;9.770;2022-12-24T03:39:16;8.70;1.00
8424;DHT22;4249;49.072;9.770;2022-12-24T03:42:04;8.80;1.00
8424;DHT22;4249;49.072;9.770;2022-12-24T03:44:51;8.80;1.00
8424;DHT22;4249;49.072;9.770;2022-12-24T03:47:38;8.80;1.00
8424;DHT22;4249;49.072;9.770;2022-12-24T03:50:25;8.80;1.00
8424;DHT22;4249;49.072;9.770;2022-12-24T03:53:12;8.80;1.00
8424;DHT22;4249;49.072;9.770;2022-12-24T03:56:01;8.80;1.00
8424;DHT22;4249;49.072;9.770;2022-12-24T03:58:49;8.90;1.00
8424;DHT22;4249;49.072;9.770;2022-12-24T04:01:36;8.90;1.00
8424;DHT22;4249;49.072;9.770;2022-12-24T04:04:23;8.80;1.00
8424;DHT22;4249;49.072;9.770;2022-12-24T04:07:11;8.90;1.00
8424;DHT22;4249;49.072;9.770;2022-12-24T04:09:58;8.90;1.00
8424;DHT22;4249;49.072;9.770;2022-12-24T04:12:47;8.80;1.00
8424;DHT22;4249;49.072;9.770;2022-12-24T04:15:34;8.70;1.00
8424;DHT22;4249;49.072;9.770;2022-12-24T04:18:21;8.70;1.00
8424;DHT22;4249;49.072;9.770;2022-12-24T04:21:08;8.60;1.00
8424;DHT22;4249;49.072;9.770;2022-12-24T04:23:56;8.50;1.00
8424;DHT22;4249;49.072;9.770;2022-12-24T04:26:43;8.50;1.00
8424;DHT22;4249;49.072;9.770;2022-12-24T04:29:31;8.50;1.00
8424;DHT22;4249;49.072;9.770;2022-12-24T04:32:19;8.50;1.00
8424;DHT22;4249;49.072;9.770;2022-12-24T04:35:06;8.60;1.00
8424;DHT22;4249;49.072;9.770;2022-12-24T04:37:53;8.60;1.00
8424;DHT22;4249;49.072;9.770;2022-12-24T04:40:40;8.60;1.00
8424;DHT22;4249;49.072;9.770;2022-12-24T04:43:28;8.60;1.00
8424;DHT22;4249;49.072;9.770;2022-12-24T04:46:18;8.60;1.00
8424;DHT22;4249;49.072;9.770;2022-12-24T04:49:06;8.70;1.00
8424;DHT22;4249;49.072;9.770;2022-12-24T04:51:53;8.70;1.00
8424;DHT22;4249;49.072;9.770;2022-12-24T04:54:40;8.80;1.00
8424;DHT22;4249;49.072;9.770;2022-12-24T04:57:27;8.80;1.00
8424;DHT22;4249;49.072;9.770;2022-12-24T05:00:17;8.80;1.00
8424;DHT22;4249;49.072;9.770;2022-12-24T05:03:05;8.80;1.00
8424;DHT22;4249;49.072;9.770;2022-12-24T05:05:52;8.80;1.00
8424;DHT22;4249;49.072;9.770;2022-12-24T05:08:46;8.70;1.00
8424;DHT22;4249;49.072;9.770;2022-12-24T05:11:33;8.80;1.00
8424;DHT22;4249;49.072;9.770;2022-12-24T05:14:21;8.80;1.00
8424;DHT22;4249;49.072;9.770;2022-12-24T05:17:08;8.80;1.00
8424;DHT22;4249;49.072;9.770;2022-12-24T05:19:56;8.80;1.00
8424;DHT22;4249;49.072;9.770;2022-12-24T05:22:43;8.80;1.00
8424;DHT22;4249;49.072;9.770;2022-12-24T05:25:48;8.90;1.00
8424;DHT22;4249;49.072;9.770;2022-12-24T05:29:02;8.90;1.00
8424;DHT22;4249;49.072;9.770;2022-12-24T05:31:50;8.80;1.00
8424;DHT22;4249;49.072;9.770;2022-12-24T05:34:37;8.80;1.00
8424;DHT22;4249;49.072;9.770;2022-12-24T05:37:25;8.80;1.00
8424;DHT22;4249;49.072;9.770;2022-12-24T05:40:12;8.80;1.00
8424;DHT22;4249;49.072;9.770;2022-12-24T05:42:59;8.80;1.00
8424;DHT22;4249;49.072;9.770;2022-12-24T05:45:47;8.90;1.00
8424;DHT22;4249;49.072;9.770;2022-12-24T05:48:34;8.90;1.00
8424;DHT22;4249;49.072;9.770;2022-12-24T05:51:22;8.90;1.00
8424;DHT22;4249;49.072;9.770;2022-12-24T05:54:11;8.80;1.00
8424;DHT22;4249;49.072;9.770;2022-12-24T05:56:58;8.80;1.00
8424;DHT22;4249;49.072;9.770;2022-12-24T05:59:45;8.70;1.00
8424;DHT22;4249;49.072;9.770;2022-12-24T06:02:33;8.70;1.00
8424;DHT22;4249;49.072;9.770;2022-12-24T06:05:21;8.80;1.00
8424;DHT22;4249;49.072;9.770;2022-12-24T06:08:08;8.80;1.00
8424;DHT22;4249;49.072;9.770;2022-12-24T06:10:57;8.80;1.00
8424;DHT22;4249;49.072;9.770;2022-12-24T06:13:44;8.80;1.00
8424;DHT22;4249;49.072;9.770;2022-12-24T06:16:31;8.90;1.00
8424;DHT22;4249;49.072;9.770;2022-12-24T06:19:19;8.80;1.00
8424;DHT22;4249;49.072;9.770;2022-12-24T06:22:06;8.80;1.00
8424;DHT22;4249;49.072;9.770;2022-12-24T06:24:53;8.70;1.00
8424;DHT22;4249;49.072;9.770;2022-12-24T06:27:41;8.70;1.00
8424;DHT22;4249;49.072;9.770;2022-12-24T06:30:29;8.80;1.00
8424;DHT22;4249;49.072;9.770;2022-12-24T06:33:16;8.70;1.00
8424;DHT22;4249;49.072;9.770;2022-12-24T06:36:05;8.80;1.00
8424;DHT22;4249;49.072;9.770;2022-12-24T06:38:53;8.70;1.00
8424;DHT22;4249;49.072;9.770;2022-12-24T06:41:41;8.70;1.00
8424;DHT22;4249;49.072;9.770;2022-12-24T06:44:29;8.70;1.00
8424;DHT22;4249;49.072;9.770;2022-12-24T06:47:16;8.70;1.00
8424;DHT22;4249;49.072;9.770;2022-12-24T06:50:04;8.70;1.00
8424;DHT22;4249;49.072;9.770;2022-12-24T06:52:52;8.60;1.00
8424;DHT22;4249;49.072;9.770;2022-12-24T06:55:39;8.50;1.00
8424;DHT22;4249;49.072;9.770;2022-12-24T06:58:26;8.60;1.00
8424;DHT22;4249;49.072;9.770;2022-12-24T07:01:16;8.60;1.00
8424;DHT22;4249;49.072;9.770;2022-12-24T07:04:04;8.70;1.00
8424;DHT22;4249;49.072;9.770;2022-12-24T07:06:51;8.70;1.00
8424;DHT22;4249;49.072;9.770;2022-12-24T07:09:38;8.70;1.00
8424;DHT22;4249;49.072;9.770;2022-12-24T07:12:26;8.80;1.00
8424;DHT22;4249;49.072;9.770;2022-12-24T07:15:13;8.80;1.00
8424;DHT22;4249;49.072;9.770;2022-12-24T07:18:01;8.90;1.00
8424;DHT22;4249;49.072;9.770;2022-12-24T07:20:49;8.90;1.00
8424;DHT22;4249;49.072;9.770;2022-12-24T07:23:36;8.90;1.00
8424;DHT22;4249;49.072;9.770;2022-12-24T07:26:24;8.90;1.00
8424;DHT22;4249;49.072;9.770;2022-12-24T07:29:12;8.90;1.00
8424;DHT22;4249;49.072;9.770;2022-12-24T07:32:00;8.80;1.00
8424;DHT22;4249;49.072;9.770;2022-12-24T07:34:48;8.80;1.00
8424;DHT22;4249;49.072;9.770;2022-12-24T07:37:35;8.80;1.00
8424;DHT22;4249;49.072;9.770;2022-12-24T07:40:22;8.90;1.00
8424;DHT22;4249;49.072;9.770;2022-12-24T07:43:10;9.00;1.00
8424;DHT22;4249;49.072;9.770;2022-12-24T07:45:57;9.00;1.00
8424;DHT22;4249;49.072;9.770;2022-12-24T07:48:44;8.90;1.00
8424;DHT22;4249;49.072;9.770;2022-12-24T07:51:33;8.90;1.00
8424;DHT22;4249;49.072;9.770;2022-12-24T07:54:20;8.90;1.00
8424;DHT22;4249;49.072;9.770;2022-12-24T07:57:07;9.00;1.00
8424;DHT22;4249;49.072;9.770;2022-12-24T07:59:54;9.00;1.00
8424;DHT22;4249;49.072;9.770;2022-12-24T08:02:42;8.90;1.00
8424;DHT22;4249;49.072;9.770;2022-12-24T08:05:32;8.90;1.00
8424;DHT22;4249;49.072;9.770;2022-12-24T08:08:21;8.90;1.00
8424;DHT22;4249;49.072;9.770;2022-12-24T08:11:08;9.00;1.00
8424;DHT22;4249;49.072;9.770;2022-12-24T08:13:56;8.90;1.00
8424;DHT22;4249;49.072;9.770;2022-12-24T08:16:43;9.00;1.00
8424;DHT22;4249;49.072;9.770;2022-12-24T08:19:30;9.00;1.00
8424;DHT22;4249;49.072;9.770;2022-12-24T08:22:17;9.00;1.00
8424;DHT22;4249;49.072;9.770;2022-12-24T08:25:07;9.00;1.00
8424;DHT22;4249;49.072;9.770;2022-12-24T08:27:54;9.00;1.00
8424;DHT22;4249;49.072;9.770;2022-12-24T08:30:43;9.10;1.00
8424;DHT22;4249;49.072;9.770;2022-12-24T08:33:30;9.20;1.00
8424;DHT22;4249;49.072;9.770;2022-12-24T08:36:18;9.10;1.00
8424;DHT22;4249;49.072;9.770;2022-12-24T08:39:05;9.20;1.00
8424;DHT22;4249;49.072;9.770;2022-12-24T08:41:55;9.20;1.00
8424;DHT22;4249;49.072;9.770;2022-12-24T08:44:42;9.20;99.90
8424;DHT22;4249;49.072;9.770;2022-12-24T08:47:29;9.20;1.00
8424;DHT22;4249;49.072;9.770;2022-12-24T08:50:16;9.20;1.00
8424;DHT22;4249;49.072;9.770;2022-12-24T08:53:04;9.30;1.00
8424;DHT22;4249;49.072;9.770;2022-12-24T08:55:51;9.20;1.00
8424;DHT22;4249;49.072;9.770;2022-12-24T08:58:39;9.30;1.00
8424;DHT22;4249;49.072;9.770;2022-12-24T09:01:27;9.30;1.00
8424;DHT22;4249;49.072;9.770;2022-12-24T09:04:14;9.30;1.00
8424;DHT22;4249;49.072;9.770;2022-12-24T09:07:01;9.40;99.90
8424;DHT22;4249;49.072;9.770;2022-12-24T09:09:48;9.40;99.90
8424;DHT22;4249;49.072;9.770;2022-12-24T09:12:35;9.40;99.90
8424;DHT22;4249;49.072;9.770;2022-12-24T09:15:25;9.60;99.90
8424;DHT22;4249;49.072;9.770;2022-12-24T09:18:13;9.70;7.90
8424;DHT22;4249;49.072;9.770;2022-12-24T09:21:00;9.70;57.50
8424;DHT22;4249;49.072;9.770;2022-12-24T09:23:48;9.60;1.00
8424;DHT22;4249;49.072;9.770;2022-12-24T09:26:35;9.60;10.60
8424;DHT22;4249;49.072;9.770;2022-12-24T09:29:22;9.60;99.90
8424;DHT22;4249;49.072;9.770;2022-12-24T09:32:11;9.70;1.00
8424;DHT22;4249;49.072;9.770;2022-12-24T09:34:58;9.70;1.00
8424;DHT22;4249;49.072;9.770;2022-12-24T09:37:45;9.80;1.00
8424;DHT22;4249;49.072;9.770;2022-12-24T09:40:36;9.90;99.90
8424;DHT22;4249;49.072;9.770;2022-12-24T09:43:25;9.90;99.90
8424;DHT22;4249;49.072;9.770;2022-12-24T09:46:19;10.00;1.00
8424;DHT22;4249;49.072;9.770;2022-12-24T09:49:12;10.10;1.00
8424;DHT22;4249;49.072;9.770;2022-12-24T09:52:05;10.10;1.00
8424;DHT22;4249;49.072;9.770;2022-12-24T09:54:59;10.10;36.10
8424;DHT22;4249;49.072;9.770;2022-12-24T09:57:49;10.10;1.00
8424;DHT22;4249;49.072;9.770;2022-12-24T10:00:37;10.20;99.90
8424;DHT22;4249;49.072;9.770;2022-12-24T10:03:26;10.30;99.90
8424;DHT22;4249;49.072;9.770;2022-12-24T10:06:17;10.40;99.90
8424;DHT22;4249;49.072;9.770;2022-12-24T10:09:11;10.60;1.00
8424;DHT22;4249;49.072;9.770;2022-12-24T10:12:08;10.90;99.90
8424;DHT22;4249;49.072;9.770;2022-12-24T10:15:04;10.80;99.90
8424;DHT22;4249;49.072;9.770;2022-12-24T10:18:06;10.90;1.00
8424;DHT22;4249;49.072;9.770;2022-12-24T10:21:04;11.10;1.00
8424;DHT22;4249;49.072;9.770;2022-12-24T10:24:04;11.30;1.00
8424;DHT22;4249;49.072;9.770;2022-12-24T10:26:56;11.40;1.00
8424;DHT22;4249;49.072;9.770;2022-12-24T10:29:48;11.50;1.00
8424;DHT22;4249;49.072;9.770;2022-12-24T10:32:36;11.70;1.00
8424;DHT22;4249;49.072;9.770;2022-12-24T10:35:26;11.70;1.00
8424;DHT22;4249;49.072;9.770;2022-12-24T10:38:15;11.70;1.00
8424;DHT22;4249;49.072;9.770;2022-12-24T10:41:03;11.70;1.00
8424;DHT22;4249;49.072;9.770;2022-12-24T10:43:52;11.70;1.00
8424;DHT22;4249;49.072;9.770;2022-12-24T10:46:40;11.70;1.00
8424;DHT22;4249;49.072;9.770;2022-12-24T10:49:32;11.70;1.00
8424;DHT22;4249;49.072;9.770;2022-12-24T10:52:21;11.60;99.90
8424;DHT22;4249;49.072;9.770;2022-12-24T10:55:20;11.40;1.00
8424;DHT22;4249;49.072;9.770;2022-12-24T10:58:14;11.20;1.00
8424;DHT22;4249;49.072;9.770;2022-12-24T11:01:02;11.10;1.00
8424;DHT22;4249;49.072;9.770;2022-12-24T11:04:00;11.00;1.00
8424;DHT22;4249;49.072;9.770;2022-12-24T11:06:54;10.90;99.90
8424;DHT22;4249;49.072;9.770;2022-12-24T11:09:54;11.00;99.90
8424;DHT22;4249;49.072;9.770;2022-12-24T11:12:46;10.90;1.00
8424;DHT22;4249;49.072;9.770;2022-12-24T11:15:35;11.00;99.90
8424;DHT22;4249;49.072;9.770;2022-12-24T11:18:23;11.00;1.00
8424;DHT22;4249;49.072;9.770;2022-12-24T11:21:10;10.90;99.90
8424;DHT22;4249;49.072;9.770;2022-12-24T11:24:07;11.00;1.00
8424;DHT22;4249;49.072;9.770;2022-12-24T11:27:23;11.00;1.00
8424;DHT22;4249;49.072;9.770;2022-12-24T11:30:31;11.10;1.00
8424;DHT22;4249;49.072;9.770;2022-12-24T11:33:20;11.20;1.00
8424;DHT22;4249;49.072;9.770;2022-12-24T11:36:11;11.30;55.10
8424;DHT22;4249;49.072;9.770;2022-12-24T11:38:58;11.50;1.00
8424;DHT22;4249;49.072;9.770;2022-12-24T11:41:46;11.70;1.00
8424;DHT22;4249;49.072;9.770;2022-12-24T11:44:33;11.60;1.00
8424;DHT22;4249;49.072;9.770;2022-12-24T11:47:31;11.60;1.00
8424;DHT22;4249;49.072;9.770;2022-12-24T11:50:24;11.70;1.00
8424;DHT22;4249;49.072;9.770;2022-12-24T11:53:15;11.60;99.90
8424;DHT22;4249;49.072;9.770;2022-12-24T11:56:11;11.50;99.90
8424;DHT22;4249;49.072;9.770;2022-12-24T11:59:06;11.20;1.00
8424;DHT22;4249;49.072;9.770;2022-12-24T12:01:58;11.00;1.00
8424;DHT22;4249;49.072;9.770;2022-12-24T12:04:49;10.90;96.00
8424;DHT22;4249;49.072;9.770;2022-12-24T12:07:38;10.80;99.90
8424;DHT22;4249;49.072;9.770;2022-12-24T12:10:29;10.60;53.10
8424;DHT22;4249;49.072;9.770;2022-12-24T12:13:19;10.60;1.00
8424;DHT22;4249;49.072;9.770;2022-12-24T12:16:15;10.40;1.00
8424;DHT22;4249;49.072;9.770;2022-12-24T12:19:07;10.50;1.00
8424;DHT22;4249;49.072;9.770;2022-12-24T12:21:55;10.50;1.00
8424;DHT22;4249;49.072;9.770;2022-12-24T12:24:50;10.50;1.00
8424;DHT22;4249;49.072;9.770;2022-12-24T12:27:43;10.60;29.40
8424;DHT22;4249;49.072;9.770;2022-12-24T12:30:31;10.50;99.90
8424;DHT22;4249;49.072;9.770;2022-12-24T12:33:25;10.30;99.90
8424;DHT22;4249;49.072;9.770;2022-12-24T12:36:18;10.20;99.90
8424;DHT22;4249;49.072;9.770;2022-12-24T12:39:08;10.20;99.90
8424;DHT22;4249;49.072;9.770;2022-12-24T12:42:03;10.20;1.00
8424;DHT22;4249;49.072;9.770;2022-12-24T12:45:10;10.30;1.00
8424;DHT22;4249;49.072;9.770;2022-12-24T12:48:18;10.40;99.90
8424;DHT22;4249;49.072;9.770;2022-12-24T12:51:12;10.50;99.90
8424;DHT22;4249;49.072;9.770;2022-12-24T12:57:33;10.40;99.90
8424;DHT22;4249;49.072;9.770;2022-12-24T13:00:22;10.40;99.90
8424;DHT22;4249;49.072;9.770;2022-12-24T13:03:36;10.40;99.90
8424;DHT22;4249;49.072;9.770;2022-12-24T13:06:49;10.60;99.90
8424;DHT22;4249;49.072;9.770;2022-12-24T13:10:00;10.80;99.90
8424;DHT22;4249;49.072;9.770;2022-12-24T13:13:17;10.80;99.90
8424;DHT22;4249;49.072;9.770;2022-12-24T13:16:25;10.70;99.90
8424;DHT22;4249;49.072;9.770;2022-12-24T13:19:23;10.70;1.00
8424;DHT22;4249;49.072;9.770;2022-12-24T13:22:15;10.60;1.00
8424;DHT22;4249;49.072;9.770;2022-12-24T13:25:03;10.50;58.20
8424;DHT22;4249;49.072;9.770;2022-12-24T13:27:50;10.40;99.90
8424;DHT22;4249;49.072;9.770;2022-12-24T13:30:39;10.20;99.90
8424;DHT22;4249;49.072;9.770;2022-12-24T13:33:45;10.10;99.90
8424;DHT22;4249;49.072;9.770;2022-12-24T13:37:03;10.10;99.90
8424;DHT22;4249;49.072;9.770;2022-12-24T13:40:02;9.90;99.90
8424;DHT22;4249;49.072;9.770;2022-12-24T13:42:54;9.80;1.00
8424;DHT22;4249;49.072;9.770;2022-12-24T13:45:53;9.80;1.00
8424;DHT22;4249;49.072;9.770;2022-12-24T13:48:40;9.80;1.00
8424;DHT22;4249;49.072;9.770;2022-12-24T13:51:27;9.70;1.00
8424;DHT22;4249;49.072;9.770;2022-12-24T13:54:18;9.60;1.00
8424;DHT22;4249;49.072;9.770;2022-12-24T13:57:24;9.50;1.00
8424;DHT22;4249;49.072;9.770;2022-12-24T14:00:29;9.50;1.00
8424;DHT22;4249;49.072;9.770;2022-12-24T14:03:27;9.40;1.00
8424;DHT22;4249;49.072;9.770;2022-12-24T14:06:22;9.40;1.00
8424;DHT22;4249;49.072;9.770;2022-12-24T14:09:12;9.40;1.00
8424;DHT22;4249;49.072;9.770;2022-12-24T14:12:29;9.20;1.00
8424;DHT22;4249;49.072;9.770;2022-12-24T14:15:57;9.10;1.00
8424;DHT22;4249;49.072;9.770;2022-12-24T14:18:49;9.00;1.00
8424;DHT22;4249;49.072;9.770;2022-12-24T14:21:51;8.90;1.00
8424;DHT22;4249;49.072;9.770;2022-12-24T14:24:42;8.90;1.00
8424;DHT22;4249;49.072;9.770;2022-12-24T14:27:35;8.70;1.00
8424;DHT22;4249;49.072;9.770;2022-12-24T14:30:25;8.60;1.00
8424;DHT22;4249;49.072;9.770;2022-12-24T14:33:28;8.60;1.00
8424;DHT22;4249;49.072;9.770;2022-12-24T14:36:21;8.50;1.00
8424;DHT22;4249;49.072;9.770;2022-12-24T14:39:15;8.50;1.00
8424;DHT22;4249;49.072;9.770;2022-12-24T14:42:17;8.50;1.00
8424;DHT22;4249;49.072;9.770;2022-12-24T14:45:17;8.50;1.00
8424;DHT22;4249;49.072;9.770;2022-12-24T14:48:15;8.60;1.00
8424;DHT22;4249;49.072;9.770;2022-12-24T14:51:09;8.60;1.00
8424;DHT22;4249;49.072;9.770;2022-12-24T14:54:30;8.60;1.00
8424;DHT22;4249;49.072;9.770;2022-12-24T14:57:21;8.50;1.00
8424;DHT22;4249;49.072;9.770;2022-12-24T15:00:18;8.40;1.00
8424;DHT22;4249;49.072;9.770;2022-12-24T15:03:11;8.30;1.00
8424;DHT22;4249;49.072;9.770;2022-12-24T15:06:01;8.30;1.00
8424;DHT22;4249;49.072;9.770;2022-12-24T15:08:49;8.20;1.00
8424;DHT22;4249;49.072;9.770;2022-12-24T15:11:42;8.10;1.00
8424;DHT22;4249;49.072;9.770;2022-12-24T15:14:34;8.10;1.00
8424;DHT22;4249;49.072;9.770;2022-12-24T15:17:27;8.00;1.00
8424;DHT22;4249;49.072;9.770;2022-12-24T15:20:16;8.00;1.00
8424;DHT22;4249;49.072;9.770;2022-12-24T15:23:04;7.90;1.00
8424;DHT22;4249;49.072;9.770;2022-12-24T15:25:51;7.90;1.00
8424;DHT22;4249;49.072;9.770;2022-12-24T15:28:55;7.80;1.00
8424;DHT22;4249;49.072;9.770;2022-12-24T15:31:42;7.80;1.00
8424;DHT22;4249;49.072;9.770;2022-12-24T15:34:35;7.80;1.00
8424;DHT22;4249;49.072;9.770;2022-12-24T15:37:25;7.80;1.00
8424;DHT22;4249;49.072;9.770;2022-12-24T15:40:20;7.70;1.00
8424;DHT22;4249;49.072;9.770;2022-12-24T15:43:09;7.70;1.00
8424;DHT22;4249;49.072;9.770;2022-12-24T15:45:58;7.60;1.00
8424;DHT22;4249;49.072;9.770;2022-12-24T15:48:47;7.60;1.00
8424;DHT22;4249;49.072;9.770;2022-12-24T15:51:36;7.60;1.00
8424;DHT22;4249;49.072;9.770;2022-12-24T15:54:24;7.50;1.00
8424;DHT22;4249;49.072;9.770;2022-12-24T15:57:13;7.50;1.00
8424;DHT22;4249;49.072;9.770;2022-12-24T16:00:20;7.50;1.00
8424;DHT22;4249;49.072;9.770;2022-12-24T16:03:17;7.50;1.00
8424;DHT22;4249;49.072;9.770;2022-12-24T16:06:06;7.50;1.00
8424;DHT22;4249;49.072;9.770;2022-12-24T16:08:54;7.50;1.00
8424;DHT22;4249;49.072;9.770;2022-12-24T16:11:42;7.60;1.00
8424;DHT22;4249;49.072;9.770;2022-12-24T16:14:30;7.60;1.00
8424;DHT22;4249;49.072;9.770;2022-12-24T16:17:20;7.80;1.00
8424;DHT22;4249;49.072;9.770;2022-12-24T16:20:17;7.80;1.00
8424;DHT22;4249;49.072;9.770;2022-12-24T16:23:13;7.80;1.00
8424;DHT22;4249;49.072;9.770;2022-12-24T16:26:01;7.90;1.00
8424;DHT22;4249;49.072;9.770;2022-12-24T16:28:48;8.00;1.00
8424;DHT22;4249;49.072;9.770;2022-12-24T16:31:43;8.00;1.00
8424;DHT22;4249;49.072;9.770;2022-12-24T16:34:31;8.00;1.00
8424;DHT22;4249;49.072;9.770;2022-12-24T16:37:20;8.10;1.00
8424;DHT22;4249;49.072;9.770;2022-12-24T16:40:13;8.10;1.00
8424;DHT22;4249;49.072;9.770;2022-12-24T16:43:00;8.10;1.00
8424;DHT22;4249;49.072;9.770;2022-12-24T16:46:05;8.20;1.00
8424;DHT22;4249;49.072;9.770;2022-12-24T16:48:52;8.20;1.00
8424;DHT22;4249;49.072;9.770;2022-12-24T16:51:40;8.10;1.00
8424;DHT22;4249;49.072;9.770;2022-12-24T16:54:28;8.10;1.00
8424;DHT22;4249;49.072;9.770;2022-12-24T16:57:15;8.20;1.00
8424;DHT22;4249;49.072;9.770;2022-12-24T17:00:03;8.10;1.00
8424;DHT22;4249;49.072;9.770;2022-12-24T17:02:52;8.10;1.00
8424;DHT22;4249;49.072;9.770;2022-12-24T17:05:40;8.10;1.00
8424;DHT22;4249;49.072;9.770;2022-12-24T17:08:28;8.10;1.00
8424;DHT22;4249;49.072;9.770;2022-12-24T17:11:21;8.10;1.00
8424;DHT22;4249;49.072;9.770;2022-12-24T17:14:09;8.10;1.00
8424;DHT22;4249;49.072;9.770;2022-12-24T17:16:58;8.00;1.00
8424;DHT22;4249;49.072;9.770;2022-12-24T17:19:45;8.00;1.00
8424;DHT22;4249;49.072;9.770;2022-12-24T17:22:32;8.00;1.00
8424;DHT22;4249;49.072;9.770;2022-12-24T17:25:19;7.90;1.00
8424;DHT22;4249;49.072;9.770;2022-12-24T17:28:08;7.90;1.00
8424;DHT22;4249;49.072;9.770;2022-12-24T17:30:55;7.90;1.00
8424;DHT22;4249;49.072;9.770;2022-12-24T17:33:43;7.90;1.00
8424;DHT22;4249;49.072;9.770;2022-12-24T17:36:31;7.90;1.00
8424;DHT22;4249;49.072;9.770;2022-12-24T17:39:18;7.80;1.00
8424;DHT22;4249;49.072;9.770;2022-12-24T17:42:05;7.90;1.00
8424;DHT22;4249;49.072;9.770;2022-12-24T17:44:53;7.90;1.00
8424;DHT22;4249;49.072;9.770;2022-12-24T17:47:40;7.90;1.00
8424;DHT22;4249;49.072;9.770;2022-12-24T17:50:28;7.90;1.00
8424;DHT22;4249;49.072;9.770;2022-12-24T17:53:15;8.00;1.00
8424;DHT22;4249;49.072;9.770;2022-12-24T17:56:03;8.00;1.00
8424;DHT22;4249;49.072;9.770;2022-12-24T17:58:50;8.00;1.00
8424;DHT22;4249;49.072;9.770;2022-12-24T18:01:39;8.00;1.00
8424;DHT22;4249;49.072;9.770;2022-12-24T18:04:26;8.00;1.00
8424;DHT22;4249;49.072;9.770;2022-12-24T18:07:14;8.10;1.00
8424;DHT22;4249;49.072;9.770;2022-12-24T18:10:01;8.10;1.00
8424;DHT22;4249;49.072;9.770;2022-12-24T18:12:49;8.10;1.00
8424;DHT22;4249;49.072;9.770;2022-12-24T18:15:38;8.00;1.00
8424;DHT22;4249;49.072;9.770;2022-12-24T18:18:27;8.10;1.00
8424;DHT22;4249;49.072;9.770;2022-12-24T18:21:15;8.10;1.00
8424;DHT22;4249;49.072;9.770;2022-12-24T18:24:04;8.10;1.00
8424;DHT22;4249;49.072;9.770;2022-12-24T18:26:51;8.10;1.00
8424;DHT22;4249;49.072;9.770;2022-12-24T18:29:38;8.10;1.00
8424;DHT22;4249;49.072;9.770;2022-12-24T18:32:27;8.10;1.00
8424;DHT22;4249;49.072;9.770;2022-12-24T18:35:15;8.00;1.00
8424;DHT22;4249;49.072;9.770;2022-12-24T18:38:03;8.00;1.00
8424;DHT22;4249;49.072;9.770;2022-12-24T18:40:52;8.00;1.00
8424;DHT22;4249;49.072;9.770;2022-12-24T18:43:39;7.90;1.00
8424;DHT22;4249;49.072;9.770;2022-12-24T18:46:28;7.90;1.00
8424;DHT22;4249;49.072;9.770;2022-12-24T18:49:16;7.90;1.00
8424;DHT22;4249;49.072;9.770;2022-12-24T18:52:05;7.90;1.00
8424;DHT22;4249;49.072;9.770;2022-12-24T18:54:52;7.90;1.00
8424;DHT22;4249;49.072;9.770;2022-12-24T18:57:40;7.80;1.00
8424;DHT22;4249;49.072;9.770;2022-12-24T19:00:27;7.80;1.00
8424;DHT22;4249;49.072;9.770;2022-12-24T19:03:14;7.80;1.00
8424;DHT22;4249;49.072;9.770;2022-12-24T19:06:01;7.80;1.00
8424;DHT22;4249;49.072;9.770;2022-12-24T19:08:50;7.80;1.00
8424;DHT22;4249;49.072;9.770;2022-12-24T19:11:38;7.80;1.00